Time;durP1;ratioP1;P1;durP2;ratioP2;P2;SDS_P1;SDS_P2;PMS_P1;PMS_P2;Temp;Humidity;BMP_temperature;BMP_pressure;BME280_temperature;BME280_humidity;BME280_pressure;Samples;Min_cycle;Max_cycle;Signal;HPM_P1;HPM_P2
2022/03/23 00:01:47;;;;;;;20.40;18.47;;;6.10;99.90;;;;;;4973832;28;20531;-73
2022/03/23 00:04:13;;;;;;;21.53;19.43;;;6.10;99.90;;;;;;4973877;28;20845;-73
2022/03/23 00:06:40;;;;;;;20.80;18.70;;;6.00;99.90;;;;;;4974326;28;20453;-73
2022/03/23 00:09:08;;;;;;;21.07;19.20;;;5.90;99.90;;;;;;4974024;28;20464;-73
2022/03/23 00:11:35;;;;;;;22.20;19.00;;;6.00;99.90;;;;;;4973743;28;20879;-73
2022/03/23 00:14:02;;;;;;;21.27;19.00;;;6.00;99.90;;;;;;4973616;28;21194;-73
2022/03/23 00:16:28;;;;;;;20.43;18.43;;;6.00;99.90;;;;;;4974061;28;20461;-74
2022/03/23 00:18:55;;;;;;;20.60;18.80;;;6.00;99.90;;;;;;4974036;28;20452;-72
2022/03/23 00:21:22;;;;;;;21.23;18.20;;;6.10;99.90;;;;;;4974065;28;20453;-73
2022/03/23 00:23:48;;;;;;;23.13;19.20;;;6.10;99.90;;;;;;4973613;28;20896;-72
2022/03/23 00:26:17;;;;;;;21.70;19.70;;;6.10;99.90;;;;;;4973505;28;20500;-73
2022/03/23 00:28:43;;;;;;;20.33;18.43;;;6.10;99.90;;;;;;4973394;28;20460;-72
2022/03/23 00:31:10;;;;;;;22.43;19.93;;;6.20;99.90;;;;;;4973454;28;20536;-72
2022/03/23 00:33:37;;;;;;;23.33;20.57;;;6.10;99.90;;;;;;4973562;28;20487;-72
2022/03/23 00:36:04;;;;;;;23.03;20.40;;;6.00;99.90;;;;;;4973500;28;20507;-73
2022/03/23 00:38:31;;;;;;;23.10;20.63;;;5.90;99.90;;;;;;4973509;28;20889;-72
2022/03/23 00:40:58;;;;;;;22.53;19.90;;;5.90;99.90;;;;;;4973280;28;20448;-72
2022/03/23 00:43:26;;;;;;;22.60;20.50;;;5.90;99.90;;;;;;4973095;28;20491;-74
2022/03/23 00:45:53;;;;;;;21.07;19.23;;;5.90;99.90;;;;;;4973289;28;20488;-73
2022/03/23 00:48:20;;;;;;;21.83;19.60;;;5.90;99.90;;;;;;4973511;28;20459;-72
2022/03/23 00:50:47;;;;;;;21.83;19.63;;;5.80;99.90;;;;;;4973166;28;20456;-72
2022/03/23 08:08:43;;;;;;;28.67;26.07;;;11.80;87.30;;;;;;5327748;23;21019;-76
2022/03/23 08:11:11;;;;;;;31.17;27.13;;;12.20;85.10;;;;;;5003699;28;20457;-77
2022/03/23 08:13:37;;;;;;;27.83;25.13;;;12.20;84.90;;;;;;5008987;28;20560;-76
2022/03/23 08:16:05;;;;;;;28.10;25.10;;;12.20;82.90;;;;;;5003338;28;20461;-76
2022/03/23 08:18:32;;;;;;;31.40;28.53;;;12.40;83.80;;;;;;5012248;28;20454;-77
2022/03/23 08:20:59;;;;;;;28.73;26.17;;;12.80;82.70;;;;;;5011655;28;20454;-78
2022/03/23 08:23:26;;;;;;;29.90;27.03;;;13.40;80.40;;;;;;5011844;28;20457;-77
2022/03/23 08:25:54;;;;;;;29.33;26.63;;;13.80;78.60;;;;;;5011844;28;20485;-78
2022/03/23 08:28:20;;;;;;;28.73;26.03;;;14.20;79.00;;;;;;5012012;28;20461;-78
2022/03/23 08:30:47;;;;;;;30.80;28.20;;;14.60;75.50;;;;;;5011584;28;20461;-78
2022/03/23 08:33:14;;;;;;;31.90;28.90;;;14.50;74.60;;;;;;5011628;28;20454;-78
2022/03/23 08:35:42;;;;;;;28.60;26.20;;;14.70;74.30;;;;;;5011404;28;20521;-78
2022/03/23 08:38:08;;;;;;;31.30;28.47;;;15.10;72.60;;;;;;5011551;28;20446;-78
2022/03/23 08:40:36;;;;;;;29.97;27.40;;;14.90;73.00;;;;;;5011660;28;20456;-78
2022/03/23 08:43:05;;;;;;;32.47;29.23;;;14.80;72.70;;;;;;5011451;28;20458;-78
2022/03/23 08:45:31;;;;;;;29.80;27.10;;;14.90;73.10;;;;;;5010792;28;20481;-79
2022/03/23 08:48:00;;;;;;;31.13;28.33;;;15.30;71.20;;;;;;5012082;28;20453;-78
2022/03/23 08:50:26;;;;;;;32.30;29.20;;;15.90;70.20;;;;;;5011954;28;20457;-77
2022/03/23 08:52:53;;;;;;;30.67;28.10;;;16.30;68.10;;;;;;5008732;28;20467;-76
2022/03/23 08:55:22;;;;;;;31.80;28.87;;;16.60;67.00;;;;;;5002955;28;20450;-76
2022/03/23 08:57:49;;;;;;;30.27;27.77;;;16.70;65.00;;;;;;5001112;28;20505;-77
2022/03/23 09:00:18;;;;;;;30.60;27.57;;;17.10;64.80;;;;;;4992161;28;20439;-77
2022/03/23 09:02:45;;;;;;;32.07;28.77;;;17.50;63.40;;;;;;5007691;28;20470;-75
2022/03/23 09:05:14;;;;;;;31.50;28.80;;;17.90;62.50;;;;;;5011010;28;20489;-77
2022/03/23 09:07:41;;;;;;;32.07;29.40;;;18.40;60.00;;;;;;4993356;28;20498;-76
2022/03/23 09:10:09;;;;;;;31.87;29.27;;;18.60;59.40;;;;;;4985146;28;20456;-77
2022/03/23 09:12:37;;;;;;;35.77;32.13;;;18.30;59.50;;;;;;4971961;28;20447;-74
2022/03/23 09:15:05;;;;;;;33.83;30.97;;;18.70;58.50;;;;;;4979291;28;20525;-75
2022/03/23 09:17:33;;;;;;;34.13;31.20;;;19.10;58.40;;;;;;4991622;28;20458;-77
2022/03/23 09:20:01;;;;;;;32.50;29.80;;;20.00;56.10;;;;;;4991941;28;20444;-78
2022/03/23 09:22:28;;;;;;;32.10;29.83;;;20.80;53.70;;;;;;4991595;28;20438;-77
2022/03/23 09:24:55;;;;;;;33.97;31.03;;;21.20;52.40;;;;;;4984842;28;20878;-78
2022/03/23 09:27:22;;;;;;;32.57;29.77;;;21.40;51.30;;;;;;4979339;28;20479;-77
2022/03/23 09:29:49;;;;;;;33.97;30.90;;;21.40;50.10;;;;;;4987441;28;20452;-79
2022/03/23 09:32:17;;;;;;;34.87;31.67;;;21.70;49.20;;;;;;4972301;28;20810;-77
2022/03/23 09:34:46;;;;;;;32.20;29.50;;;22.10;48.60;;;;;;4971628;28;20830;-75
2022/03/23 09:39:57;;;;;;;34.87;31.93;;;23.10;46.40;;;;;;4972392;28;20439;-76
2022/03/23 09:42:26;;;;;;;35.37;32.67;;;23.40;45.20;;;;;;4971951;28;20459;-76
2022/03/23 09:44:55;;;;;;;35.47;31.80;;;23.80;44.40;;;;;;4972276;28;20452;-77
2022/03/23 09:47:22;;;;;;;34.93;32.20;;;25.20;42.50;;;;;;4975020;28;20861;-77
2022/03/23 09:49:50;;;;;;;36.80;33.80;;;25.90;40.10;;;;;;4991263;28;20960;-77
2022/03/23 09:52:17;;;;;;;36.67;33.47;;;26.50;38.40;;;;;;4991078;28;20451;-77
2022/03/23 09:54:45;;;;;;;37.13;33.90;;;25.80;38.80;;;;;;4991922;28;21110;-76
2022/03/23 09:57:13;;;;;;;35.83;32.93;;;26.00;38.70;;;;;;4991547;28;20442;-79
2022/03/23 09:59:40;;;;;;;35.27;32.37;;;27.40;35.20;;;;;;4991838;28;20455;-76
2022/03/23 10:03:03;;;;;;;33.33;30.50;;;27.70;33.60;;;;;;4978926;28;20460;-82
2022/03/23 10:06:05;;;;;;;33.03;30.47;;;27.40;33.00;;;;;;4976570;28;20483;-85
2022/03/23 10:09:07;;;;;;;31.23;29.00;;;27.50;32.60;;;;;;4911582;29;20472;-86
2022/03/23 10:12:35;;;;;;;32.90;30.27;;;27.80;30.40;;;;;;4937211;29;20453;-85
2022/03/23 10:15:55;;;;;;;31.60;29.40;;;28.30;30.20;;;;;;4933609;29;20634;-79
2022/03/23 10:18:51;;;;;;;34.30;31.40;;;27.70;29.90;;;;;;4951840;29;20456;-80
2022/03/23 10:21:18;;;;;;;30.67;28.33;;;27.10;30.20;;;;;;4952766;28;20449;-80
2022/03/23 10:24:08;;;;;;;25.23;23.50;;;26.90;30.00;;;;;;4952747;29;20555;-79
2022/03/23 10:26:37;;;;;;;26.70;24.97;;;27.20;27.60;;;;;;4947763;28;20492;-79
2022/03/23 10:29:07;;;;;;;32.17;29.67;;;27.60;27.50;;;;;;4952213;29;20449;-79
2022/03/23 10:31:33;;;;;;;30.40;28.30;;;27.90;28.60;;;;;;4952488;29;20456;-79
2022/03/23 10:34:07;;;;;;;31.67;29.67;;;28.00;28.90;;;;;;4952141;29;20456;-79
2022/03/23 10:36:34;;;;;;;34.03;31.17;;;28.20;29.50;;;;;;4952350;29;20551;-78
2022/03/23 10:39:05;;;;;;;34.03;31.60;;;28.50;28.90;;;;;;4952349;29;20810;-79
2022/03/23 10:41:31;;;;;;;31.53;29.03;;;27.60;30.00;;;;;;4933242;29;20456;-78
2022/03/23 10:43:58;;;;;;;33.60;31.03;;;27.10;30.70;;;;;;4932665;28;20449;-80
2022/03/23 10:46:25;;;;;;;36.53;33.63;;;26.80;31.00;;;;;;4943813;29;20484;-80
2022/03/23 10:48:58;;;;;;;36.60;33.70;;;27.30;30.00;;;;;;4948995;29;20453;-80
2022/03/23 10:51:30;;;;;;;37.40;34.50;;;28.00;29.70;;;;;;4936825;29;20493;-79
2022/03/23 10:53:57;;;;;;;34.40;31.80;;;27.60;30.00;;;;;;4949865;29;20460;-79
2022/03/23 10:56:37;;;;;;;32.43;30.10;;;27.60;30.10;;;;;;4955808;29;20455;-79
2022/03/23 10:59:21;;;;;;;32.27;29.77;;;27.30;29.40;;;;;;4955718;29;20448;-79
2022/03/23 11:02:00;;;;;;;32.53;29.90;;;27.30;29.30;;;;;;4947800;28;20488;-79
2022/03/23 11:04:29;;;;;;;33.53;31.10;;;28.00;28.70;;;;;;4936679;29;20453;-79
2022/03/23 11:06:56;;;;;;;33.50;31.20;;;28.30;28.20;;;;;;4935916;29;20497;-79
2022/03/23 11:18:07;;;;;;;31.27;29.37;;;30.00;27.10;;;;;;4959876;28;20490;-78
2022/03/23 11:20:44;;;;;;;29.87;27.97;;;29.20;25.90;;;;;;4993968;28;20508;-79
2022/03/23 11:23:23;;;;;;;32.63;30.17;;;29.50;25.80;;;;;;4993762;28;20944;-78
2022/03/23 11:25:50;;;;;;;31.97;29.80;;;30.20;25.20;;;;;;4992705;28;20993;-78
2022/03/23 11:28:19;;;;;;;28.63;26.70;;;30.80;24.90;;;;;;4974469;28;20459;-78
2022/03/23 11:30:47;;;;;;;32.43;29.97;;;31.20;24.40;;;;;;4974000;28;20909;-78
2022/03/23 11:33:16;;;;;;;31.47;29.43;;;30.40;24.00;;;;;;4973774;28;20456;-79
2022/03/23 11:35:48;;;;;;;31.03;29.00;;;31.10;24.10;;;;;;4974383;28;20455;-78
2022/03/23 11:38:16;;;;;;;28.83;26.87;;;31.40;24.00;;;;;;4974278;28;20452;-78
2022/03/23 11:40:44;;;;;;;23.80;22.40;;;31.10;23.30;;;;;;4987637;28;20447;-78
2022/03/23 11:43:11;;;;;;;24.13;22.83;;;30.30;21.90;;;;;;4993582;28;20470;-78
2022/03/23 11:45:42;;;;;;;22.37;21.17;;;29.60;22.50;;;;;;4993388;28;20486;-78
2022/03/23 11:48:15;;;;;;;22.47;21.13;;;28.40;22.00;;;;;;4993781;28;20457;-78
2022/03/23 11:50:52;;;;;;;24.23;22.73;;;28.10;22.40;;;;;;4993273;28;20455;-78
2022/03/23 11:53:27;;;;;;;23.70;22.00;;;27.50;23.30;;;;;;4992647;28;20451;-77
2022/03/23 11:55:56;;;;;;;24.67;23.07;;;27.60;23.50;;;;;;4993810;28;20458;-78
2022/03/23 11:58:34;;;;;;;22.57;21.17;;;27.80;23.70;;;;;;4995962;28;20968;-77
2022/03/23 12:01:09;;;;;;;22.67;21.17;;;27.60;21.80;;;;;;4993225;28;20468;-78
2022/03/23 12:03:57;;;;;;;22.90;21.60;;;27.90;22.80;;;;;;4993525;28;20458;-79
2022/03/23 12:06:36;;;;;;;25.07;23.30;;;28.60;22.60;;;;;;4992920;28;20491;-78
2022/03/23 12:09:03;;;;;;;24.03;22.60;;;27.70;22.70;;;;;;4993069;28;20478;-78
2022/03/23 12:11:50;;;;;;;24.90;23.30;;;26.60;23.20;;;;;;4993029;28;20455;-78
2022/03/23 12:14:28;;;;;;;24.80;23.13;;;26.80;23.50;;;;;;4992961;28;20454;-78
2022/03/23 12:17:10;;;;;;;24.00;22.60;;;26.60;23.70;;;;;;4992976;28;20911;-78
2022/03/23 12:20:07;;;;;;;25.27;23.77;;;26.70;24.00;;;;;;4992956;28;20952;-78
2022/03/23 12:23:14;;;;;;;25.33;23.63;;;27.00;24.30;;;;;;4992881;28;20463;-78
2022/03/23 12:25:56;;;;;;;25.63;23.93;;;28.00;23.60;;;;;;4992431;28;20697;-79
2022/03/23 12:28:28;;;;;;;27.10;25.50;;;27.40;23.80;;;;;;4991156;28;20496;-81
2022/03/23 12:31:10;;;;;;;27.13;25.33;;;27.30;23.90;;;;;;4991054;28;20450;-82
2022/03/23 12:34:04;;;;;;;24.83;23.23;;;27.40;23.50;;;;;;4991807;28;20525;-80
2022/03/23 12:39:22;;;;;;;27.70;26.00;;;27.70;23.30;;;;;;4989397;28;20935;-79
2022/03/23 12:41:49;;;;;;;27.50;25.77;;;27.70;23.40;;;;;;4987232;28;20458;-79
2022/03/23 12:44:16;;;;;;;26.27;24.47;;;27.60;24.00;;;;;;4984255;28;20451;-80
2022/03/23 12:46:45;;;;;;;27.80;26.10;;;28.10;23.90;;;;;;4972653;28;20487;-79
2022/03/23 13:00:25;;;;;;;25.10;23.23;;;26.40;23.40;;;;;;4972868;28;20434;-88
2022/03/23 13:03:30;;;;;;;27.80;25.80;;;27.30;23.50;;;;;;4972089;28;20554;-80
2022/03/23 13:06:09;;;;;;;25.50;23.80;;;27.00;23.70;;;;;;4970331;28;20801;-80
2022/03/23 13:08:47;;;;;;;25.33;23.40;;;27.10;23.90;;;;;;4971748;28;20570;-80
2022/03/23 13:11:16;;;;;;;24.33;22.90;;;27.20;23.60;;;;;;4971337;28;20455;-81
2022/03/23 13:13:49;;;;;;;25.20;23.63;;;27.10;23.60;;;;;;4971695;28;20876;-82
2022/03/23 13:16:18;;;;;;;23.97;22.53;;;27.60;23.30;;;;;;4971756;28;20463;-81
2022/03/23 13:18:45;;;;;;;25.83;24.07;;;28.40;23.00;;;;;;4971510;28;20825;-81
2022/03/23 13:21:16;;;;;;;24.83;23.10;;;27.70;22.30;;;;;;4971256;28;20451;-81
2022/03/23 13:23:44;;;;;;;26.47;24.80;;;27.00;22.50;;;;;;4971645;28;20485;-81
2022/03/23 13:26:12;;;;;;;25.70;24.10;;;26.40;23.50;;;;;;4971819;28;20455;-81
2022/03/23 13:28:42;;;;;;;23.80;22.27;;;26.00;24.60;;;;;;4971780;28;20960;-80
2022/03/23 13:31:12;;;;;;;25.80;24.00;;;26.00;24.30;;;;;;4971755;28;20960;-81
2022/03/23 13:33:40;;;;;;;25.20;23.40;;;26.00;24.70;;;;;;4972010;28;20455;-81
2022/03/23 13:36:09;;;;;;;27.43;25.23;;;26.50;24.70;;;;;;4971613;28;20455;-81
2022/03/23 13:38:38;;;;;;;27.40;25.60;;;26.50;24.30;;;;;;4971555;28;20487;-81
2022/03/23 13:43:52;;;;;;;25.97;24.00;;;25.10;25.70;;;;;;4971742;28;20435;-80
2022/03/23 13:46:19;;;;;;;25.73;24.07;;;24.90;25.80;;;;;;4971342;28;20514;-81
2022/03/23 13:48:53;;;;;;;27.00;25.07;;;25.10;25.70;;;;;;4971422;28;20447;-80
2022/03/23 13:51:20;;;;;;;26.03;24.33;;;25.40;25.70;;;;;;4971531;28;20467;-81
2022/03/23 13:53:48;;;;;;;27.43;25.50;;;25.50;25.30;;;;;;4991092;28;20474;-84
2022/03/23 13:56:17;;;;;;;24.93;23.13;;;25.30;25.30;;;;;;4990732;28;21007;-81
2022/03/23 13:58:45;;;;;;;26.90;25.10;;;25.00;25.80;;;;;;4990860;28;20446;-81
2022/03/23 14:01:12;;;;;;;26.87;25.17;;;24.60;26.00;;;;;;4990696;28;20451;-80
2022/03/23 14:03:40;;;;;;;25.73;23.83;;;24.30;26.10;;;;;;4990921;28;20461;-81
2022/03/23 14:06:09;;;;;;;27.77;25.80;;;24.00;26.30;;;;;;4990562;28;20904;-81
2022/03/23 14:08:36;;;;;;;25.27;23.27;;;23.60;26.30;;;;;;4990672;28;20553;-80
2022/03/23 14:11:05;;;;;;;24.83;23.03;;;22.90;26.40;;;;;;4990725;28;20486;-80
2022/03/23 14:13:37;;;;;;;23.83;22.00;;;22.10;27.20;;;;;;4990655;28;20454;-80
2022/03/23 14:16:06;;;;;;;23.90;22.30;;;21.40;28.50;;;;;;4992500;28;21032;-79
2022/03/23 14:18:33;;;;;;;24.00;22.40;;;20.60;28.80;;;;;;4990315;28;20936;-79
2022/03/23 14:21:03;;;;;;;24.07;22.43;;;20.30;29.30;;;;;;4991858;28;20537;-79
2022/03/23 14:23:31;;;;;;;23.43;21.73;;;20.00;29.70;;;;;;4994499;28;20486;-76
2022/03/23 14:25:59;;;;;;;24.30;22.50;;;19.80;29.60;;;;;;4994384;28;20465;-76
2022/03/23 14:28:27;;;;;;;24.97;23.03;;;19.70;29.70;;;;;;4994930;28;20482;-78
2022/03/23 14:30:58;;;;;;;26.17;24.37;;;19.60;30.00;;;;;;4995034;28;20439;-76
2022/03/23 14:33:26;;;;;;;23.43;21.67;;;19.50;31.00;;;;;;4995087;28;20458;-76
2022/03/23 14:35:55;;;;;;;22.40;20.90;;;19.40;31.70;;;;;;4994895;28;20545;-78
2022/03/23 14:38:26;;;;;;;24.97;23.03;;;19.30;31.50;;;;;;4994899;28;20458;-77
2022/03/23 14:40:55;;;;;;;23.67;21.87;;;19.30;31.80;;;;;;4994939;28;20520;-76
2022/03/23 14:43:32;;;;;;;23.77;21.97;;;19.30;32.10;;;;;;4994829;28;20461;-77
2022/03/23 14:46:16;;;;;;;23.10;21.30;;;19.30;31.80;;;;;;4994671;28;20465;-77
2022/03/23 14:48:43;;;;;;;25.53;23.77;;;19.30;31.50;;;;;;4994384;28;20492;-77
2022/03/23 14:51:11;;;;;;;25.67;23.80;;;19.30;31.70;;;;;;4994457;28;20830;-77
2022/03/23 14:53:38;;;;;;;24.33;21.93;;;19.30;32.20;;;;;;4976114;28;20827;-77
2022/03/23 14:56:05;;;;;;;21.30;19.80;;;19.20;32.00;;;;;;4974966;28;21048;-76
2022/03/23 14:58:35;;;;;;;23.03;21.13;;;19.20;32.30;;;;;;4974781;28;20980;-76
2022/03/23 15:01:05;;;;;;;24.23;22.40;;;19.10;32.10;;;;;;4974934;28;20452;-75
2022/03/23 15:03:33;;;;;;;24.33;22.40;;;19.10;32.10;;;;;;4974924;28;20744;-76
2022/03/23 15:14:16;;;;;;;23.33;21.53;;;19.00;31.50;;;;;;4974809;28;20956;-75
2022/03/23 15:16:44;;;;;;;23.13;21.13;;;19.00;31.30;;;;;;4974545;28;20455;-75
2022/03/23 15:19:12;;;;;;;21.80;20.20;;;19.00;30.90;;;;;;4974579;28;20540;-76
2022/03/23 15:21:40;;;;;;;22.00;20.57;;;19.00;30.90;;;;;;4974154;28;20822;-75
2022/03/23 15:24:07;;;;;;;24.20;22.30;;;19.00;30.70;;;;;;4974196;28;20452;-76
2022/03/23 15:26:34;;;;;;;23.60;22.00;;;19.00;30.90;;;;;;4974034;28;20538;-76
2022/03/23 15:29:02;;;;;;;23.00;21.60;;;19.00;31.00;;;;;;4973751;28;20496;-76
2022/03/23 15:31:31;;;;;;;22.17;20.67;;;19.00;31.00;;;;;;4974115;28;20456;-75
2022/03/23 15:33:58;;;;;;;22.20;20.40;;;19.00;30.60;;;;;;4973098;28;20447;-75
2022/03/23 15:36:25;;;;;;;23.33;21.77;;;19.00;30.60;;;;;;4973882;28;20448;-75
2022/03/23 15:38:53;;;;;;;22.67;21.20;;;18.90;30.80;;;;;;4973870;28;20455;-76
2022/03/23 15:41:20;;;;;;;22.13;20.67;;;18.80;30.50;;;;;;4973604;28;20458;-78
2022/03/23 15:43:49;;;;;;;22.20;20.60;;;18.80;30.80;;;;;;4973862;28;20463;-77
2022/03/23 15:46:18;;;;;;;22.50;20.57;;;18.80;30.70;;;;;;4973480;28;20462;-76
2022/03/23 15:48:47;;;;;;;22.13;20.53;;;18.80;30.50;;;;;;4973694;28;20655;-76
2022/03/23 15:51:14;;;;;;;22.53;21.00;;;18.70;30.40;;;;;;4973320;28;20456;-77
2022/03/23 15:53:41;;;;;;;20.60;19.30;;;18.70;30.90;;;;;;4992540;28;20455;-77
2022/03/23 15:56:09;;;;;;;22.57;20.67;;;18.60;30.90;;;;;;4992960;28;20451;-77
2022/03/23 15:58:36;;;;;;;23.33;21.33;;;18.60;31.10;;;;;;4993059;28;20458;-77
2022/03/23 16:01:03;;;;;;;21.73;19.93;;;18.60;31.30;;;;;;4991370;28;20462;-76
2022/03/23 16:03:30;;;;;;;21.20;19.60;;;18.60;31.10;;;;;;4992844;28;20459;-77
2022/03/23 16:05:58;;;;;;;21.20;19.43;;;18.60;31.00;;;;;;4992517;28;20466;-77
2022/03/23 16:08:25;;;;;;;21.93;20.23;;;18.60;31.00;;;;;;4992473;28;20861;-76
2022/03/23 16:10:53;;;;;;;23.57;20.97;;;18.50;30.80;;;;;;4992648;28;20454;-75
2022/03/23 16:13:20;;;;;;;22.60;20.50;;;18.50;31.00;;;;;;4992478;28;20510;-75
2022/03/23 16:15:47;;;;;;;22.43;20.80;;;18.40;31.20;;;;;;4992510;28;20451;-76
2022/03/23 16:18:14;;;;;;;20.40;19.00;;;18.40;31.20;;;;;;4992362;28;20959;-75
2022/03/23 16:20:41;;;;;;;21.33;19.93;;;18.40;30.90;;;;;;4992419;28;20459;-76
2022/03/23 16:23:09;;;;;;;21.57;19.77;;;18.30;31.20;;;;;;4992641;28;20451;-75
2022/03/23 16:25:36;;;;;;;20.87;19.37;;;18.20;31.50;;;;;;4992333;28;20451;-75
2022/03/23 16:28:03;;;;;;;21.60;20.07;;;18.20;31.80;;;;;;4992266;28;20498;-76
2022/03/23 16:30:32;;;;;;;21.00;19.53;;;18.20;31.70;;;;;;4992474;28;20459;-79
2022/03/23 16:33:00;;;;;;;21.70;20.00;;;18.10;31.70;;;;;;4989162;28;20822;-79
2022/03/23 16:35:26;;;;;;;21.30;19.90;;;18.10;31.50;;;;;;4992258;28;20462;-79
2022/03/23 16:37:54;;;;;;;22.90;21.00;;;18.10;31.40;;;;;;4992008;28;20457;-79
2022/03/23 16:40:23;;;;;;;22.47;20.53;;;18.00;31.60;;;;;;4992143;28;20455;-78
2022/03/23 16:42:53;;;;;;;22.23;20.53;;;17.90;32.00;;;;;;4991990;28;20469;-77
2022/03/23 16:45:21;;;;;;;22.97;21.20;;;17.80;31.80;;;;;;4991892;28;20454;-78
2022/03/23 16:47:49;;;;;;;23.97;21.83;;;17.70;32.00;;;;;;4991661;28;20497;-78
2022/03/23 16:50:18;;;;;;;22.80;21.00;;;17.60;32.20;;;;;;4991906;28;20494;-78
2022/03/23 16:52:46;;;;;;;20.37;18.80;;;17.60;32.40;;;;;;4980511;28;20533;-78
2022/03/23 16:55:13;;;;;;;21.23;19.83;;;17.60;32.30;;;;;;4972498;28;20922;-78
2022/03/23 16:57:41;;;;;;;21.80;20.40;;;17.60;32.40;;;;;;4972752;28;20498;-78
2022/03/23 17:00:09;;;;;;;21.50;19.90;;;17.50;32.90;;;;;;4972827;28;20455;-79
2022/03/23 17:02:37;;;;;;;19.63;18.33;;;17.40;33.00;;;;;;4972833;28;20448;-79
2022/03/23 17:13:18;;;;;;;19.37;18.07;;;17.10;33.10;;;;;;4972816;28;20468;-78
2022/03/23 17:15:47;;;;;;;19.70;18.40;;;16.90;33.60;;;;;;4972298;28;20444;-78
2022/03/23 17:18:16;;;;;;;21.37;19.77;;;16.70;33.90;;;;;;4972199;28;20490;-78
2022/03/23 17:20:42;;;;;;;21.07;19.30;;;16.60;34.10;;;;;;4972130;28;20566;-80
2022/03/23 17:23:10;;;;;;;20.27;18.73;;;16.40;34.50;;;;;;4972082;28;20463;-79
2022/03/23 17:25:37;;;;;;;20.87;19.10;;;16.30;34.80;;;;;;4972152;28;20459;-79
2022/03/23 17:28:04;;;;;;;21.50;19.80;;;16.30;34.80;;;;;;4971791;28;20599;-78
2022/03/23 17:30:33;;;;;;;20.30;18.97;;;16.10;34.70;;;;;;4971832;28;20923;-78
2022/03/23 17:33:00;;;;;;;21.40;19.60;;;16.10;34.90;;;;;;4971930;28;20467;-78
2022/03/23 17:35:26;;;;;;;21.03;19.53;;;16.00;34.80;;;;;;4971791;28;20455;-78
2022/03/23 17:37:53;;;;;;;19.70;18.10;;;16.00;35.00;;;;;;4971920;28;20455;-78
2022/03/23 17:40:20;;;;;;;21.27;19.67;;;15.90;35.00;;;;;;4971715;28;20796;-78
2022/03/23 17:42:47;;;;;;;20.90;19.17;;;15.80;35.30;;;;;;4971768;28;20452;-77
2022/03/23 17:45:13;;;;;;;22.50;20.50;;;15.70;35.40;;;;;;4971665;28;20488;-77
2022/03/23 17:47:41;;;;;;;21.73;19.67;;;15.50;35.50;;;;;;4971872;28;20463;-77
2022/03/23 17:50:10;;;;;;;22.73;20.63;;;15.40;35.70;;;;;;4971810;28;20474;-77
2022/03/23 17:52:38;;;;;;;22.00;19.70;;;15.20;36.20;;;;;;4982007;28;20454;-77
2022/03/23 17:55:05;;;;;;;22.63;20.50;;;14.90;37.70;;;;;;4990932;28;20538;-78
2022/03/23 17:57:32;;;;;;;21.50;19.90;;;14.70;38.80;;;;;;4994719;28;20955;-77
2022/03/23 17:59:59;;;;;;;22.80;19.47;;;14.60;39.20;;;;;;4995145;28;20455;-78
2022/03/23 18:02:26;;;;;;;21.20;19.40;;;14.40;39.60;;;;;;4994909;28;20451;-78
2022/03/23 18:04:54;;;;;;;21.47;19.60;;;14.20;40.20;;;;;;4995028;28;20446;-78
2022/03/23 18:07:20;;;;;;;21.00;19.20;;;14.00;40.60;;;;;;4994714;28;20474;-79
2022/03/23 18:09:47;;;;;;;20.90;18.93;;;13.90;41.20;;;;;;4995024;28;20493;-81
2022/03/23 18:12:15;;;;;;;23.23;21.10;;;13.70;41.70;;;;;;4994801;28;20454;-80
2022/03/23 18:14:42;;;;;;;22.13;19.73;;;13.60;42.10;;;;;;4994228;28;20533;-81
2022/03/23 18:17:09;;;;;;;19.90;18.20;;;13.50;42.50;;;;;;4995031;28;20463;-81
2022/03/23 18:19:36;;;;;;;19.93;18.20;;;13.30;42.60;;;;;;4995105;28;20818;-81
2022/03/23 18:22:05;;;;;;;22.10;20.20;;;13.20;43.20;;;;;;4994750;28;21050;-81
2022/03/23 18:24:31;;;;;;;22.40;20.63;;;13.10;43.70;;;;;;4994847;28;20459;-81
2022/03/23 18:26:58;;;;;;;22.60;20.47;;;13.00;44.00;;;;;;4994784;28;20864;-81
2022/03/23 18:29:27;;;;;;;23.50;18.07;;;12.90;44.30;;;;;;4994680;28;21015;-81
2022/03/23 18:31:54;;;;;;;19.00;17.03;;;12.80;44.70;;;;;;4994965;28;20459;-80
2022/03/23 18:34:20;;;;;;;19.50;17.90;;;12.70;44.90;;;;;;4994957;28;20458;-81
2022/03/23 18:36:47;;;;;;;21.13;19.30;;;12.60;45.20;;;;;;4994575;28;20451;-80
2022/03/23 18:39:15;;;;;;;21.00;19.30;;;12.60;45.40;;;;;;4994558;28;20455;-80
2022/03/23 18:41:42;;;;;;;22.03;20.10;;;12.50;45.40;;;;;;4994395;28;20462;-80
2022/03/23 18:44:09;;;;;;;21.77;19.80;;;12.40;45.40;;;;;;4994582;28;20450;-80
2022/03/23 18:46:36;;;;;;;21.20;19.10;;;12.40;45.60;;;;;;4994665;28;20458;-80
2022/03/23 18:49:03;;;;;;;22.90;20.70;;;12.30;45.80;;;;;;4994252;28;20494;-80
2022/03/23 18:51:29;;;;;;;21.90;19.57;;;12.20;46.00;;;;;;4993064;28;20465;-80
2022/03/23 18:53:56;;;;;;;22.37;20.00;;;12.00;46.30;;;;;;4974779;28;20458;-80
2022/03/23 18:56:24;;;;;;;22.10;19.70;;;12.00;46.70;;;;;;4975083;28;20462;-80
2022/03/23 18:58:51;;;;;;;20.07;18.30;;;11.90;46.90;;;;;;4974603;28;20467;-80
2022/03/23 19:01:18;;;;;;;19.53;17.70;;;11.90;47.20;;;;;;4974755;28;20470;-80
2022/03/23 19:03:45;;;;;;;20.57;18.70;;;11.70;48.00;;;;;;4974374;28;20872;-80
2022/03/23 19:06:13;;;;;;;21.33;19.43;;;11.60;48.30;;;;;;4974461;28;20485;-80
2022/03/23 19:08:41;;;;;;;20.30;18.70;;;11.40;48.90;;;;;;4973143;28;20509;-80
2022/03/23 19:11:09;;;;;;;18.97;17.37;;;11.20;49.30;;;;;;4974710;28;20460;-80
2022/03/23 19:13:39;;;;;;;21.40;19.47;;;11.10;49.80;;;;;;4974530;28;20849;-81
2022/03/23 19:16:06;;;;;;;21.03;18.30;;;10.90;50.50;;;;;;4974415;28;20452;-80
2022/03/23 19:18:33;;;;;;;21.03;19.33;;;10.80;51.50;;;;;;4974530;28;20860;-79
2022/03/23 19:21:00;;;;;;;22.13;20.10;;;10.60;52.00;;;;;;4974106;28;20456;-79
2022/03/23 19:23:28;;;;;;;20.83;18.80;;;10.40;52.90;;;;;;4974387;28;20455;-79
2022/03/23 19:25:57;;;;;;;20.17;18.07;;;10.30;53.60;;;;;;4974147;28;20469;-80
2022/03/23 19:28:25;;;;;;;21.70;19.87;;;10.20;54.30;;;;;;4974259;28;20547;-80
2022/03/23 19:30:53;;;;;;;22.47;19.90;;;10.10;54.80;;;;;;4974200;28;20495;-79
2022/03/23 19:33:20;;;;;;;18.03;16.60;;;9.90;56.50;;;;;;4974176;28;20455;-80
2022/03/23 19:35:47;;;;;;;18.17;16.57;;;9.90;57.10;;;;;;4973592;28;20463;-80
2022/03/23 19:38:14;;;;;;;19.40;17.63;;;9.80;56.90;;;;;;4973886;28;20539;-79
2022/03/23 19:40:42;;;;;;;21.40;19.43;;;9.80;58.30;;;;;;4973710;28;20456;-79
2022/03/23 19:43:09;;;;;;;23.87;19.40;;;9.70;59.00;;;;;;4974219;28;20492;-79
2022/03/23 19:45:36;;;;;;;23.67;21.03;;;9.60;60.20;;;;;;4974052;28;20459;-79
2022/03/23 19:48:08;;;;;;;22.73;19.97;;;9.70;61.10;;;;;;4973604;28;20459;-80
2022/03/23 19:50:34;;;;;;;22.77;20.33;;;9.60;61.10;;;;;;4973986;28;20458;-78
2022/03/23 19:53:02;;;;;;;21.10;19.03;;;9.60;61.60;;;;;;4987162;28;20443;-79
2022/03/23 19:55:28;;;;;;;22.40;19.87;;;9.60;62.20;;;;;;4993123;28;21287;-79
2022/03/23 19:57:55;;;;;;;20.87;19.00;;;9.50;62.30;;;;;;4992905;28;20505;-79
2022/03/23 20:00:22;;;;;;;20.27;18.47;;;9.50;62.50;;;;;;4993116;28;20453;-79
2022/03/23 20:02:50;;;;;;;20.80;18.97;;;9.40;62.50;;;;;;4992860;28;20447;-79
2022/03/23 20:05:19;;;;;;;20.60;18.73;;;9.30;63.30;;;;;;4993054;28;20455;-79
2022/03/23 20:07:47;;;;;;;19.07;17.13;;;9.30;63.80;;;;;;4992567;28;20518;-78
2022/03/23 20:10:14;;;;;;;19.53;17.83;;;9.20;64.20;;;;;;4992759;28;20544;-78
2022/03/23 20:12:40;;;;;;;21.13;18.50;;;9.00;65.40;;;;;;4992614;28;20462;-78
2022/03/23 20:15:08;;;;;;;20.80;18.93;;;8.90;66.50;;;;;;4992975;28;20847;-79
2022/03/23 20:17:35;;;;;;;22.57;20.17;;;8.80;67.50;;;;;;4992920;28;20454;-78
2022/03/23 20:20:03;;;;;;;18.47;16.80;;;8.70;68.80;;;;;;4992190;28;20945;-78
2022/03/23 20:22:31;;;;;;;24.80;20.53;;;8.60;69.40;;;;;;4992813;28;20450;-78
2022/03/23 20:24:57;;;;;;;25.47;19.70;;;8.60;71.80;;;;;;4992770;28;20458;-79
2022/03/23 20:27:24;;;;;;;32.30;19.90;;;8.50;74.30;;;;;;4992972;28;20471;-79
2022/03/23 20:29:51;;;;;;;31.93;21.77;;;8.50;77.30;;;;;;4992483;28;20487;-78
2022/03/23 20:32:18;;;;;;;31.30;20.50;;;8.50;80.00;;;;;;4992534;28;20820;-79
2022/03/23 20:34:45;;;;;;;30.47;19.57;;;8.50;80.40;;;;;;4992203;28;20972;-78
2022/03/23 20:37:11;;;;;;;29.70;20.33;;;8.50;80.30;;;;;;4992245;28;20463;-78
2022/03/23 20:39:39;;;;;;;22.70;19.40;;;8.50;81.40;;;;;;4992414;28;20967;-80
2022/03/23 20:42:06;;;;;;;22.50;20.10;;;8.50;82.70;;;;;;4992351;28;20458;-79